createdAt,value
2022-10-29T00:00:08.265Z,5.43
2022-10-29T00:05:11.433Z,5.15
2022-10-29T00:10:14.199Z,5.28
2022-10-29T00:15:16.962Z,5.70
2022-10-29T00:20:22.127Z,6.63
2022-10-29T00:25:27.780Z,7.00
2022-10-29T00:30:30.567Z,6.43
2022-10-29T00:35:33.212Z,5.72
2022-10-29T00:40:38.985Z,9.00
2022-10-29T00:46:05.766Z,7.50
2022-10-29T00:51:10.444Z,6.85
2022-10-29T00:56:13.579Z,6.03
2022-10-29T01:01:16.684Z,6.32
2022-10-29T01:06:19.769Z,7.68
2022-10-29T01:11:34.716Z,6.80
2022-10-29T01:16:56.607Z,8.20
2022-10-29T01:22:20.230Z,8.25
2022-10-29T01:27:40.441Z,6.23
2022-10-29T01:32:54.135Z,7.63
2022-10-29T01:38:25.957Z,7.43
2022-10-29T01:43:41.988Z,7.53
2022-10-29T01:48:47.779Z,9.18
2022-10-29T01:54:15.050Z,7.93
2022-10-29T01:59:28.796Z,6.70
2022-10-29T02:05:04.060Z,9.05
2022-10-29T02:10:12.694Z,7.55
2022-10-29T02:15:18.356Z,8.80
2022-10-29T02:20:21.111Z,7.88
2022-10-29T02:25:24.349Z,8.30
2022-10-29T02:30:27.168Z,6.35
2022-10-29T02:35:29.823Z,7.78
2022-10-29T02:40:32.487Z,7.10
2022-10-29T02:45:35.127Z,7.00
2022-10-29T02:50:37.956Z,5.78
2022-10-29T02:55:40.653Z,6.90
2022-10-29T03:00:43.256Z,4.88
2022-10-29T03:05:48.954Z,4.90
2022-10-29T03:10:52.114Z,4.85
2022-10-29T03:15:54.803Z,5.57
2022-10-29T03:20:57.451Z,5.95
2022-10-29T03:26:00.202Z,5.90
2022-10-29T03:31:03.298Z,5.00
2022-10-29T03:36:08.021Z,6.63
2022-10-29T03:41:11.232Z,5.85
2022-10-29T03:46:13.979Z,5.32
2022-10-29T03:51:16.703Z,5.72
2022-10-29T03:56:19.427Z,5.25
2022-10-29T04:01:22.220Z,5.97
2022-10-29T04:06:24.956Z,4.60
2022-10-29T04:11:27.649Z,5.07
2022-10-29T04:16:30.337Z,5.32
2022-10-29T04:32:18.370Z,6.13
2022-10-29T04:37:21.042Z,5.90
2022-10-29T04:42:23.750Z,4.97
2022-10-29T04:47:26.465Z,5.05
2022-10-29T04:52:29.120Z,6.18
2022-10-29T04:57:31.855Z,5.97
2022-10-29T05:02:36.432Z,4.90
2022-10-29T05:07:39.151Z,5.85
2022-10-29T05:12:41.827Z,6.20
2022-10-29T05:17:44.485Z,7.40
2022-10-29T05:22:47.274Z,5.07
2022-10-29T05:27:49.921Z,6.15
2022-10-29T05:32:52.778Z,6.05
2022-10-29T05:37:57.537Z,5.13
2022-10-29T05:43:00.789Z,4.95
2022-10-29T05:48:04.798Z,5.60
2022-10-29T05:53:11.518Z,6.35
2022-10-29T05:58:14.559Z,5.53
2022-10-29T06:03:22.478Z,6.60
2022-10-29T06:08:25.277Z,6.93
2022-10-29T06:13:28.034Z,6.75
2022-10-29T06:18:30.874Z,7.15
2022-10-29T06:23:35.085Z,6.70
2022-10-29T06:28:37.784Z,7.80
2022-10-29T06:33:40.463Z,7.65
2022-10-29T06:38:43.107Z,6.50
2022-10-29T06:43:45.819Z,7.35
2022-10-29T06:48:48.644Z,6.22
2022-10-29T06:53:51.424Z,8.52
2022-10-29T06:58:54.120Z,8.15
2022-10-29T07:03:56.849Z,9.88
2022-10-29T07:08:59.543Z,8.63
2022-10-29T07:14:06.368Z,7.97
2022-10-29T07:19:09.105Z,9.07
2022-10-29T07:24:11.857Z,7.15
2022-10-29T07:29:14.512Z,7.65
2022-10-29T07:34:17.199Z,7.85
2022-10-29T07:39:19.966Z,9.57
2022-10-29T07:44:22.714Z,7.95
2022-10-29T07:49:25.413Z,7.78
2022-10-29T07:54:28.016Z,7.57
2022-10-29T07:59:30.771Z,8.18
2022-10-29T08:04:33.427Z,8.45
2022-10-29T08:09:36.099Z,7.35
2022-10-29T08:14:38.767Z,7.60
2022-10-29T08:19:41.462Z,7.70
2022-10-29T08:24:44.116Z,6.55
2022-10-29T08:29:46.859Z,7.10
2022-10-29T08:34:49.481Z,7.45
2022-10-29T08:39:52.686Z,7.20
2022-10-29T08:45:19.474Z,7.05
2022-10-29T08:50:29.995Z,7.45
2022-10-29T08:55:37.237Z,6.72
2022-10-29T09:00:42.838Z,7.78
2022-10-29T09:06:14.673Z,6.80
2022-10-29T09:11:34.823Z,6.43
2022-10-29T09:16:57.125Z,6.68
2022-10-29T09:22:11.736Z,6.20
2022-10-29T09:32:37.748Z,6.40
2022-10-29T09:37:46.717Z,5.15
2022-10-29T09:42:49.511Z,7.45
2022-10-29T09:48:01.017Z,6.18
2022-10-29T09:53:03.924Z,6.13
2022-10-29T09:58:07.356Z,6.45
2022-10-29T10:03:21.417Z,6.10
2022-10-29T10:08:24.109Z,5.60
2022-10-29T10:13:32.004Z,6.63
2022-10-29T10:23:54.780Z,6.85
2022-10-29T10:29:13.709Z,7.25
2022-10-29T10:34:20.706Z,7.97
2022-10-29T10:39:38.075Z,6.90
2022-10-29T10:44:48.906Z,6.78
2022-10-29T10:49:51.628Z,7.07
2022-10-29T10:55:04.188Z,6.55
2022-10-29T11:00:22.584Z,7.28
2022-10-29T11:05:37.450Z,7.97
2022-10-29T11:10:46.022Z,8.38
2022-10-29T11:15:52.997Z,9.38
2022-10-29T11:21:11.828Z,7.20
2022-10-29T11:26:29.380Z,7.80
2022-10-29T11:31:32.080Z,8.02
2022-10-29T11:36:48.664Z,8.82
2022-10-29T11:42:01.628Z,9.35
2022-10-29T11:47:24.917Z,6.93
2022-10-29T11:52:35.576Z,7.07
2022-10-29T11:58:02.324Z,7.10
2022-10-29T12:03:20.492Z,7.32
2022-10-29T12:08:45.053Z,7.78
2022-10-29T12:13:59.754Z,8.02
2022-10-29T12:19:04.229Z,6.90
2022-10-29T12:24:11.499Z,9.13
2022-10-29T12:29:20.729Z,8.10
2022-10-29T12:34:31.362Z,7.90
2022-10-29T12:39:38.198Z,9.77
2022-10-29T12:45:02.080Z,8.55
2022-10-29T12:50:37.591Z,8.23
2022-10-29T12:55:42.666Z,8.40
2022-10-29T13:00:48.065Z,8.43
2022-10-29T13:05:50.799Z,7.88
2022-10-29T13:10:54.753Z,8.93
2022-10-29T13:15:57.614Z,8.13
2022-10-29T13:21:00.353Z,9.32
2022-10-29T13:26:07.690Z,7.75
2022-10-29T13:31:10.289Z,8.25
2022-10-29T13:36:21.536Z,8.25
2022-10-29T13:41:43.222Z,8.90
2022-10-29T13:46:53.316Z,7.70
2022-10-29T13:52:01.556Z,8.18
2022-10-29T13:57:13.090Z,9.18
2022-10-29T14:02:18.513Z,8.48
2022-10-29T14:07:34.546Z,8.75
2022-10-29T14:12:38.669Z,9.95
2022-10-29T14:17:42.212Z,9.17
2022-10-29T14:22:45.839Z,8.85
2022-10-29T14:27:48.618Z,9.75
2022-10-29T14:32:51.497Z,8.75
2022-10-29T14:37:57.263Z,8.45
2022-10-29T14:43:00.505Z,11.35
2022-10-29T14:48:09.974Z,10.85
2022-10-29T14:53:31.607Z,12.05
2022-10-29T14:58:35.677Z,9.95
2022-10-29T15:03:38.472Z,8.83
2022-10-29T15:08:42.468Z,10.05
2022-10-29T15:13:46.645Z,10.48
2022-10-29T15:18:52.128Z,10.50
2022-10-29T15:24:08.387Z,9.70
2022-10-29T15:29:12.300Z,8.90
2022-10-29T15:34:24.771Z,9.43
2022-10-29T15:39:42.420Z,8.77
2022-10-29T15:45:03.285Z,8.77
2022-10-29T15:50:10.236Z,9.07
2022-10-29T15:55:28.335Z,8.43
2022-10-29T16:00:31.962Z,10.50
2022-10-29T16:05:34.784Z,10.43
2022-10-29T16:10:37.440Z,10.18
2022-10-29T16:15:43.252Z,9.63
2022-10-29T16:20:47.212Z,10.23
2022-10-29T16:25:49.887Z,9.13
2022-10-29T16:30:58.776Z,8.55
2022-10-29T16:36:01.467Z,10.10
2022-10-29T16:41:04.289Z,10.13
2022-10-29T16:46:07.431Z,9.50
2022-10-29T16:51:10.095Z,8.95
2022-10-29T16:56:15.725Z,9.85
2022-10-29T17:01:18.833Z,9.57
2022-10-29T17:06:21.593Z,9.90
2022-10-29T17:11:24.296Z,10.18
2022-10-29T17:16:26.998Z,8.80
2022-10-29T17:21:35.267Z,9.48
2022-10-29T17:26:37.949Z,9.48
2022-10-29T17:31:40.669Z,9.20
2022-10-29T17:36:44.826Z,10.05
2022-10-29T17:41:48.255Z,9.60
2022-10-29T17:46:51.016Z,9.55
2022-10-29T17:51:53.922Z,10.65
2022-10-29T17:56:56.618Z,11.05
2022-10-29T18:01:59.358Z,11.40
2022-10-29T18:07:02.110Z,10.50
2022-10-29T18:12:04.901Z,10.02
2022-10-29T18:17:07.712Z,9.75
2022-10-29T18:22:10.520Z,12.00
2022-10-29T18:27:13.347Z,11.05
2022-10-29T18:32:16.217Z,10.68
2022-10-29T18:37:18.873Z,10.40
2022-10-29T18:42:21.553Z,10.68
2022-10-29T18:47:24.264Z,10.43
2022-10-29T18:52:26.955Z,9.50
2022-10-29T18:57:29.760Z,9.95
2022-10-29T19:02:32.468Z,9.48
2022-10-29T19:07:35.329Z,9.38
2022-10-29T19:12:37.985Z,9.55
2022-10-29T19:17:40.646Z,8.95
2022-10-29T19:22:50.968Z,9.50
2022-10-29T19:27:53.658Z,9.90
2022-10-29T19:32:56.585Z,8.43
2022-10-29T19:37:59.630Z,8.20
2022-10-29T19:43:02.621Z,8.88
2022-10-29T19:48:05.747Z,9.80
2022-10-29T19:53:08.555Z,10.23
2022-10-29T19:58:11.349Z,9.52
2022-10-29T20:03:15.247Z,8.48
2022-10-29T20:08:17.935Z,8.68
2022-10-29T20:13:20.602Z,8.32
2022-10-29T20:18:23.234Z,8.57
2022-10-29T20:23:26.002Z,8.32
2022-10-29T20:28:29.018Z,8.77
2022-10-29T20:33:31.694Z,9.13
2022-10-29T20:38:34.454Z,8.10
2022-10-29T20:43:37.090Z,7.95
2022-10-29T20:48:39.780Z,7.78
2022-10-29T20:53:42.472Z,9.32
2022-10-29T20:58:45.207Z,8.38
2022-10-29T21:03:50.469Z,7.57
2022-10-29T21:08:53.288Z,7.85
2022-10-29T21:13:56.529Z,7.78
2022-10-29T21:19:01.001Z,8.35
2022-10-29T21:24:04.028Z,8.18
2022-10-29T21:29:06.781Z,8.13
2022-10-29T21:34:09.530Z,8.60
2022-10-29T21:39:12.261Z,7.43
2022-10-29T21:44:14.980Z,6.82
2022-10-29T21:49:17.678Z,6.80
2022-10-29T21:54:21.956Z,6.75
2022-10-29T21:59:27.216Z,6.20
2022-10-29T22:04:29.840Z,6.93
2022-10-29T22:09:32.637Z,6.40
2022-10-29T22:14:35.289Z,6.72
2022-10-29T22:19:40.182Z,6.68
2022-10-29T22:24:42.824Z,6.57
2022-10-29T22:29:45.480Z,7.10
2022-10-29T22:34:48.083Z,7.25
2022-10-29T22:39:50.716Z,6.82
2022-10-29T22:44:53.541Z,7.85
2022-10-29T22:49:56.978Z,6.88
2022-10-29T22:54:59.601Z,7.10
2022-10-29T23:00:02.306Z,6.30
2022-10-29T23:05:07.135Z,7.27
2022-10-29T23:10:10.167Z,7.70
2022-10-29T23:15:12.858Z,7.47
2022-10-29T23:20:15.570Z,7.70
2022-10-29T23:25:18.227Z,7.18
2022-10-29T23:30:20.981Z,7.78
2022-10-29T23:35:23.707Z,7.32
2022-10-29T23:40:26.419Z,7.00
2022-10-29T23:45:29.049Z,7.78
2022-10-29T23:50:31.895Z,7.47
2022-10-29T23:55:35.379Z,7.57
